createdAt,value
2023-02-22T00:02:29.153Z,8.68
2023-02-22T00:05:32.132Z,8.76
2023-02-22T00:08:37.327Z,8.74
2023-02-22T00:11:46.593Z,8.76
2023-02-22T00:14:51.202Z,8.73
2023-02-22T00:17:55.220Z,8.78
2023-02-22T00:21:02.540Z,8.65
2023-02-22T00:24:22.872Z,8.80
2023-02-22T00:27:25.797Z,8.71
2023-02-22T00:30:31.985Z,8.57
2023-02-22T00:33:36.616Z,8.55
2023-02-22T00:36:39.536Z,8.44
2023-02-22T00:39:42.215Z,8.37
2023-02-22T00:42:46.502Z,8.39
2023-02-22T00:45:49.307Z,8.30
2023-02-22T00:48:54.839Z,8.25
2023-02-22T00:51:57.547Z,8.23
2023-02-22T00:55:02.214Z,8.22
2023-02-22T00:58:06.048Z,8.19
2023-02-22T01:01:09.616Z,8.25
2023-02-22T01:04:14.012Z,8.13
2023-02-22T01:07:17.213Z,8.07
2023-02-22T01:10:25.731Z,8.02
2023-02-22T01:13:28.655Z,8.10
2023-02-22T01:16:31.293Z,7.92
2023-02-22T01:19:34.529Z,7.96
2023-02-22T01:22:37.525Z,8.01
2023-02-22T01:25:41.134Z,8.02
2023-02-22T01:28:44.973Z,7.99
2023-02-22T01:31:54.613Z,7.99
2023-02-22T01:34:57.333Z,8.01
2023-02-22T01:38:00.400Z,8.11
2023-02-22T01:41:05.510Z,7.97
2023-02-22T01:44:41.599Z,8.11
2023-02-22T01:47:44.891Z,8.15
2023-02-22T01:51:10.757Z,8.21
2023-02-22T01:54:16.610Z,8.20
2023-02-22T01:57:35.908Z,8.18
2023-02-22T02:00:40.212Z,8.31
2023-02-22T02:03:45.144Z,8.17
2023-02-22T02:06:50.735Z,8.34
2023-02-22T02:10:02.786Z,8.17
2023-02-22T02:13:06.109Z,8.06
2023-02-22T02:16:09.741Z,8.75
2023-02-22T02:19:43.694Z,8.61
2023-02-22T02:23:20.933Z,8.49
2023-02-22T02:26:42.278Z,8.53
2023-02-22T02:30:16.104Z,8.35
2023-02-22T02:33:25.795Z,8.30
2023-02-22T02:36:52.750Z,8.37
2023-02-22T02:40:13.222Z,8.29
2023-02-22T02:43:38.229Z,8.35
2023-02-22T02:46:56.217Z,8.31
2023-02-22T02:50:11.884Z,8.14
2023-02-22T02:53:22.230Z,8.24
2023-02-22T02:56:26.301Z,8.11
2023-02-22T02:59:33.924Z,8.25
2023-02-22T03:02:55.258Z,8.26
2023-02-22T03:06:08.686Z,8.29
2023-02-22T03:09:14.272Z,8.06
2023-02-22T03:12:49.695Z,8.01
2023-02-22T03:16:17.297Z,7.75
2023-02-22T03:20:09.948Z,7.41
2023-02-22T03:23:18.097Z,7.35
2023-02-22T03:26:27.409Z,7.35
2023-02-22T03:29:42.794Z,7.28
2023-02-22T03:32:51.498Z,7.29
2023-02-22T03:36:03.717Z,7.24
2023-02-22T03:39:12.273Z,7.16
2023-02-22T03:42:21.382Z,7.09
2023-02-22T03:45:28.294Z,6.96
2023-02-22T03:48:51.529Z,6.92
2023-02-22T03:51:58.141Z,6.84
2023-02-22T03:55:02.809Z,6.77
2023-02-22T03:58:11.293Z,6.82
2023-02-22T04:01:15.711Z,6.93
2023-02-22T04:04:21.510Z,7.06
2023-02-22T04:07:25.061Z,7.09
2023-02-22T04:10:33.604Z,7.05
2023-02-22T04:13:36.789Z,7.20
2023-02-22T04:16:40.205Z,7.20
2023-02-22T04:19:45.337Z,7.25
2023-02-22T04:22:53.654Z,7.35
2023-02-22T04:25:57.955Z,7.17
2023-02-22T04:29:00.899Z,7.11
2023-02-22T04:32:04.421Z,6.98
2023-02-22T04:35:08.637Z,6.85
2023-02-22T04:38:11.834Z,6.76
2023-02-22T04:41:19.175Z,6.67
2023-02-22T04:44:22.566Z,6.70
2023-02-22T04:47:27.216Z,6.71
2023-02-22T04:50:32.782Z,6.72
2023-02-22T04:53:36.485Z,6.57
2023-02-22T04:56:39.609Z,6.60
2023-02-22T04:59:43.824Z,6.67
2023-02-22T05:02:55.477Z,6.49
2023-02-22T05:06:01.871Z,6.60
2023-02-22T05:09:04.720Z,6.39
2023-02-22T05:12:07.836Z,6.36
2023-02-22T05:15:12.162Z,6.35
2023-02-22T05:18:16.349Z,6.55
2023-02-22T05:21:20.755Z,6.42
2023-02-22T05:24:24.200Z,6.34
2023-02-22T05:27:26.907Z,6.38
2023-02-22T05:30:35.472Z,6.29
2023-02-22T05:33:39.724Z,6.30
2023-02-22T05:36:42.953Z,6.50
2023-02-22T05:39:49.215Z,6.42
2023-02-22T05:42:54.315Z,6.34
2023-02-22T05:45:57.202Z,6.46
2023-02-22T05:49:00.471Z,6.36
2023-02-22T05:52:04.062Z,6.48
2023-02-22T05:55:11.111Z,6.45
2023-02-22T05:58:13.788Z,6.48
2023-02-22T06:01:18.214Z,6.67
2023-02-22T06:04:24.254Z,7.03
2023-02-22T06:07:27.300Z,7.52
2023-02-22T06:10:31.344Z,7.78
2023-02-22T06:13:36.688Z,8.33
2023-02-22T06:16:39.712Z,8.66
2023-02-22T06:19:42.456Z,9.36
2023-02-22T06:22:53.667Z,9.97
2023-02-22T06:25:56.288Z,10.27
2023-02-22T06:28:59.636Z,10.46
2023-02-22T06:32:02.604Z,10.17
2023-02-22T06:35:06.227Z,10.42
2023-02-22T06:38:09.990Z,10.67
2023-02-22T06:41:16.083Z,10.79
2023-02-22T06:44:19.041Z,10.79
2023-02-22T06:47:22.105Z,11.00
2023-02-22T06:50:29.324Z,11.23
2023-02-22T06:53:32.408Z,11.57
2023-02-22T06:56:35.403Z,11.92
2023-02-22T06:59:38.791Z,12.29
2023-02-22T07:02:42.897Z,12.38
2023-02-22T07:05:49.602Z,12.23
2023-02-22T07:08:52.918Z,12.42
2023-02-22T07:11:56.296Z,12.73
2023-02-22T07:14:59.400Z,13.08
2023-02-22T07:18:02.361Z,13.52
2023-02-22T07:21:05.708Z,13.46
2023-02-22T07:24:09.221Z,14.04
2023-02-22T07:27:12.045Z,14.37
2023-02-22T07:30:19.885Z,14.79
2023-02-22T07:33:22.880Z,15.65
2023-02-22T07:36:25.991Z,15.65
2023-02-22T07:39:28.682Z,14.55
2023-02-22T07:42:35.494Z,13.19
2023-02-22T07:45:38.056Z,12.81
2023-02-22T07:48:41.780Z,12.71
2023-02-22T07:51:44.803Z,13.40
2023-02-22T07:54:48.037Z,13.53
2023-02-22T07:57:53.017Z,13.63
2023-02-22T08:00:56.630Z,13.47
2023-02-22T08:03:59.587Z,13.50
2023-02-22T08:07:04.141Z,13.22
2023-02-22T08:10:18.513Z,13.55
2023-02-22T08:13:24.480Z,14.08
2023-02-22T08:16:27.688Z,13.85
2023-02-22T08:19:30.511Z,14.09
2023-02-22T08:22:33.424Z,13.95
2023-02-22T08:25:36.482Z,13.55
2023-02-22T08:28:39.731Z,13.61
2023-02-22T08:31:42.481Z,13.28
2023-02-22T08:34:45.625Z,13.68
2023-02-22T08:37:50.765Z,13.26
2023-02-22T08:40:54.039Z,13.10
2023-02-22T08:43:56.785Z,13.35
2023-02-22T08:46:59.981Z,14.70
2023-02-22T08:50:03.376Z,14.54
2023-02-22T08:53:10.046Z,13.81
2023-02-22T08:56:17.041Z,14.42
2023-02-22T08:59:20.310Z,13.95
2023-02-22T09:02:23.331Z,14.55
2023-02-22T09:05:26.786Z,13.26
2023-02-22T09:08:29.632Z,15.50
2023-02-22T09:11:32.620Z,15.86
2023-02-22T09:14:35.337Z,15.56
2023-02-22T09:17:38.394Z,16.37
2023-02-22T09:20:42.151Z,17.05
2023-02-22T09:23:47.692Z,15.82
2023-02-22T09:26:54.218Z,16.55
2023-02-22T09:29:57.591Z,16.58
2023-02-22T09:33:03.836Z,16.19
2023-02-22T09:36:13.259Z,15.87
2023-02-22T09:39:17.737Z,15.96
2023-02-22T09:42:33.712Z,15.52
2023-02-22T09:46:20.140Z,14.47
2023-02-22T09:49:41.303Z,14.66
2023-02-22T09:52:59.553Z,14.36
2023-02-22T09:56:11.115Z,15.08
2023-02-22T09:59:20.946Z,15.39
2023-02-22T10:02:29.360Z,15.18
2023-02-22T10:05:43.045Z,16.06
2023-02-22T10:08:46.134Z,16.08
2023-02-22T10:12:02.835Z,15.67
2023-02-22T10:15:08.654Z,15.21
2023-02-22T10:18:14.815Z,14.33
2023-02-22T10:21:44.693Z,14.48
2023-02-22T10:25:00.187Z,14.87
2023-02-22T10:28:21.833Z,13.44
2023-02-22T10:31:30.866Z,14.09
2023-02-22T10:34:43.889Z,14.15
2023-02-22T10:37:48.260Z,13.90
2023-02-22T10:41:16.350Z,13.89
2023-02-22T10:44:20.965Z,14.07
2023-02-22T10:47:25.513Z,14.01
2023-02-22T10:50:31.416Z,13.73
2023-02-22T10:53:38.029Z,14.34
2023-02-22T10:56:49.029Z,14.47
2023-02-22T10:59:52.276Z,14.62
2023-02-22T11:02:58.695Z,14.50
2023-02-22T11:06:19.536Z,14.21
2023-02-22T11:09:22.740Z,13.41
2023-02-22T11:12:48.662Z,13.84
2023-02-22T11:15:52.818Z,14.50
2023-02-22T11:19:09.394Z,14.04
2023-02-22T11:22:20.772Z,13.26
2023-02-22T11:25:28.743Z,13.21
2023-02-22T11:28:35.770Z,13.72
2023-02-22T11:31:44.496Z,13.76
2023-02-22T11:35:00.289Z,13.74
2023-02-22T11:38:11.146Z,14.06
2023-02-22T11:41:29.267Z,14.07
2023-02-22T11:44:33.221Z,14.06
2023-02-22T11:47:59.104Z,14.12
2023-02-22T11:51:45.164Z,13.84
2023-02-22T11:55:29.739Z,13.65
2023-02-22T11:58:49.801Z,13.04
2023-02-22T12:01:59.992Z,13.29
2023-02-22T12:05:11.850Z,12.91
2023-02-22T12:08:45.519Z,13.08
2023-02-22T12:12:11.960Z,13.15
2023-02-22T12:15:39.067Z,13.07
2023-02-22T12:18:45.170Z,13.36
2023-02-22T12:21:58.477Z,13.25
2023-02-22T12:25:24.985Z,13.13
2023-02-22T12:28:50.970Z,13.05
2023-02-22T12:32:05.332Z,13.26
2023-02-22T12:35:19.842Z,13.08
2023-02-22T12:38:33.049Z,13.00
2023-02-22T12:41:48.652Z,13.08
2023-02-22T12:44:58.389Z,13.21
2023-02-22T12:48:19.940Z,13.11
2023-02-22T12:51:29.247Z,13.26
2023-02-22T12:54:48.749Z,13.36
2023-02-22T12:58:25.201Z,13.43
2023-02-22T13:01:35.807Z,13.39
2023-02-22T13:04:38.778Z,13.23
2023-02-22T13:07:52.649Z,13.36
2023-02-22T13:11:15.281Z,13.14
2023-02-22T13:14:39.206Z,13.25
2023-02-22T13:18:08.433Z,13.31
2023-02-22T13:21:14.499Z,13.25
2023-02-22T13:24:24.004Z,13.25
2023-02-22T13:27:42.284Z,13.24
2023-02-22T13:31:09.019Z,13.26
2023-02-22T13:34:35.890Z,13.15
2023-02-22T13:38:00.785Z,13.11
2023-02-22T13:41:12.934Z,13.12
2023-02-22T13:44:24.981Z,12.90
2023-02-22T13:47:45.926Z,13.19
2023-02-22T13:51:07.024Z,12.98
2023-02-22T13:54:18.709Z,13.14
2023-02-22T13:57:27.716Z,12.97
2023-02-22T14:00:50.582Z,12.90
2023-02-22T14:04:19.419Z,12.76
2023-02-22T14:07:22.066Z,12.97
2023-02-22T14:10:59.163Z,12.68
2023-02-22T14:14:01.735Z,12.71
2023-02-22T14:17:23.519Z,12.88
2023-02-22T14:20:35.135Z,12.73
2023-02-22T14:23:41.527Z,12.65
2023-02-22T14:27:04.999Z,12.74
2023-02-22T14:30:27.990Z,12.93
2023-02-22T14:34:01.506Z,13.22
2023-02-22T14:37:13.069Z,13.29
2023-02-22T14:40:30.218Z,14.04
2023-02-22T14:43:37.608Z,13.43
2023-02-22T14:46:42.724Z,13.04
2023-02-22T14:49:49.179Z,13.67
2023-02-22T14:53:06.922Z,13.18
2023-02-22T14:56:51.093Z,12.90
2023-02-22T15:00:22.861Z,13.44
2023-02-22T15:03:33.455Z,14.01
2023-02-22T15:06:36.382Z,13.85
2023-02-22T15:09:39.372Z,13.69
2023-02-22T15:12:42.265Z,13.60
2023-02-22T15:16:02.110Z,13.50
2023-02-22T15:19:09.066Z,13.76
2023-02-22T15:22:21.873Z,13.33
2023-02-22T15:25:28.373Z,13.18
2023-02-22T15:28:31.800Z,13.18
2023-02-22T15:31:37.911Z,13.52
2023-02-22T15:34:43.935Z,13.39
2023-02-22T15:37:47.653Z,13.05
2023-02-22T15:41:03.600Z,13.10
2023-02-22T15:44:22.677Z,12.91
2023-02-22T15:47:34.010Z,12.95
2023-02-22T15:50:39.169Z,12.86
2023-02-22T15:53:50.886Z,13.34
2023-02-22T15:56:59.089Z,13.11
2023-02-22T16:00:02.708Z,12.48
2023-02-22T16:03:09.618Z,12.36
2023-02-22T16:06:29.481Z,12.27
2023-02-22T16:09:33.768Z,12.13
2023-02-22T16:12:37.062Z,12.16
2023-02-22T16:15:39.729Z,12.00
2023-02-22T16:18:42.918Z,12.08
2023-02-22T16:22:05.302Z,11.95
2023-02-22T16:25:25.108Z,11.92
2023-02-22T16:28:30.942Z,11.93
2023-02-22T16:31:39.967Z,11.72
2023-02-22T16:34:42.961Z,11.78
2023-02-22T16:37:48.720Z,11.76
2023-02-22T16:41:00.646Z,11.78
2023-02-22T16:44:07.750Z,11.65
2023-02-22T16:47:12.229Z,11.69
2023-02-22T16:50:17.360Z,11.70
2023-02-22T16:53:24.122Z,11.72
2023-02-22T16:56:32.373Z,11.66
2023-02-22T16:59:39.875Z,11.61
2023-02-22T17:02:45.002Z,11.54
2023-02-22T17:05:48.062Z,11.54
2023-02-22T17:08:52.785Z,11.53
2023-02-22T17:11:56.023Z,11.42
2023-02-22T17:15:00.384Z,11.40
2023-02-22T17:18:14.095Z,11.45
2023-02-22T17:21:19.410Z,11.32
2023-02-22T17:24:29.521Z,11.33
2023-02-22T17:27:33.601Z,11.48
2023-02-22T17:30:37.874Z,11.41
2023-02-22T17:33:43.839Z,11.49
2023-02-22T17:36:46.669Z,11.33
2023-02-22T17:39:51.690Z,11.25
2023-02-22T17:42:58.150Z,11.13
2023-02-22T17:46:07.905Z,11.02
2023-02-22T17:49:13.926Z,11.05
2023-02-22T17:52:17.789Z,10.84
2023-02-22T17:55:21.528Z,10.80
2023-02-22T17:58:34.169Z,10.79
2023-02-22T18:01:37.642Z,10.76
2023-02-22T18:04:41.220Z,10.71
2023-02-22T18:07:46.300Z,10.63
2023-02-22T18:10:52.747Z,10.71
2023-02-22T18:13:59.490Z,10.55
2023-02-22T18:17:03.011Z,10.37
2023-02-22T18:20:12.055Z,10.30
2023-02-22T18:23:19.547Z,10.31
2023-02-22T18:26:25.240Z,10.22
2023-02-22T18:29:29.200Z,10.11
2023-02-22T18:32:33.666Z,9.97
2023-02-22T18:35:38.895Z,9.82
2023-02-22T18:38:43.233Z,9.71
2023-02-22T18:41:48.924Z,9.87
2023-02-22T18:44:52.949Z,9.50
2023-02-22T18:47:57.250Z,9.41
2023-02-22T18:51:05.922Z,9.44
2023-02-22T18:54:13.163Z,9.41
2023-02-22T18:57:17.110Z,9.67
2023-02-22T19:00:28.738Z,9.76
2023-02-22T19:03:38.282Z,9.55
2023-02-22T19:06:50.015Z,9.56
2023-02-22T19:09:53.192Z,9.33
2023-02-22T19:12:59.142Z,9.31
2023-02-22T19:16:04.520Z,9.37
2023-02-22T19:19:07.777Z,9.26
2023-02-22T19:22:15.324Z,9.17
2023-02-22T19:25:19.434Z,9.19
2023-02-22T19:28:28.056Z,9.13
2023-02-22T19:31:34.030Z,9.20
2023-02-22T19:34:39.626Z,9.34
2023-02-22T19:37:42.620Z,9.28
2023-02-22T19:40:45.524Z,9.29
2023-02-22T19:43:55.173Z,9.39
2023-02-22T19:46:58.533Z,9.35
2023-02-22T19:50:02.306Z,9.25
2023-02-22T19:53:05.750Z,9.36
2023-02-22T19:56:12.215Z,9.39
2023-02-22T19:59:19.063Z,9.21
2023-02-22T20:02:31.408Z,9.31
2023-02-22T20:05:42.561Z,9.32
2023-02-22T20:08:53.201Z,9.33
2023-02-22T20:11:57.115Z,9.37
2023-02-22T20:15:03.269Z,9.30
2023-02-22T20:18:09.194Z,9.31
2023-02-22T20:21:20.484Z,9.32
2023-02-22T20:24:28.559Z,9.38
2023-02-22T20:27:36.114Z,9.07
2023-02-22T20:30:44.685Z,9.26
2023-02-22T20:33:49.747Z,9.19
2023-02-22T20:36:59.063Z,9.18
2023-02-22T20:40:04.214Z,9.13
2023-02-22T20:43:10.017Z,9.04
2023-02-22T20:46:13.173Z,9.02
2023-02-22T20:49:19.610Z,8.93
2023-02-22T20:52:22.744Z,8.67
2023-02-22T20:55:26.148Z,8.66
2023-02-22T20:58:29.315Z,8.84
2023-02-22T21:01:34.552Z,8.81
2023-02-22T21:04:37.924Z,8.74
2023-02-22T21:07:41.183Z,8.95
2023-02-22T21:10:50.947Z,8.98
2023-02-22T21:13:54.570Z,8.74
2023-02-22T21:16:57.576Z,8.70
2023-02-22T21:23:26.530Z,8.76
2023-02-22T21:26:32.477Z,8.76
2023-02-22T21:29:39.181Z,8.79
2023-02-22T21:32:42.425Z,8.77
2023-02-22T21:35:47.241Z,8.73
2023-02-22T21:39:00.557Z,8.65
2023-02-22T21:42:07.248Z,8.71
2023-02-22T21:45:12.437Z,8.67
2023-02-22T21:48:18.458Z,8.79
2023-02-22T21:51:31.585Z,8.78
2023-02-22T21:54:34.880Z,8.84
2023-02-22T21:57:40.667Z,8.76
2023-02-22T22:00:44.789Z,8.89
2023-02-22T22:03:47.773Z,8.75
2023-02-22T22:06:52.527Z,8.74
2023-02-22T22:09:56.737Z,8.68
2023-02-22T22:13:00.366Z,8.66
2023-02-22T22:16:09.576Z,8.53
2023-02-22T22:19:13.512Z,8.60
2023-02-22T22:22:16.877Z,8.69
2023-02-22T22:25:19.884Z,8.49
2023-02-22T22:28:23.173Z,8.41
2023-02-22T22:31:27.554Z,8.55
2023-02-22T22:34:30.816Z,8.61
2023-02-22T22:37:34.604Z,8.55
2023-02-22T22:40:38.980Z,8.75
2023-02-22T22:43:45.975Z,8.77
2023-02-22T22:46:50.241Z,8.78
2023-02-22T22:49:55.944Z,8.77
2023-02-22T22:53:04.594Z,8.63
2023-02-22T22:56:15.072Z,8.53
2023-02-22T22:59:20.230Z,8.60
2023-02-22T23:02:23.051Z,8.42
2023-02-22T23:05:28.460Z,8.35
2023-02-22T23:08:43.168Z,8.39
2023-02-22T23:11:50.834Z,8.19
2023-02-22T23:14:56.661Z,8.14
2023-02-22T23:18:03.820Z,8.17
2023-02-22T23:21:07.099Z,8.28
2023-02-22T23:24:15.123Z,8.16
2023-02-22T23:27:19.022Z,8.11
2023-02-22T23:30:22.310Z,8.03
2023-02-22T23:33:26.723Z,8.03
2023-02-22T23:36:30.134Z,7.97
2023-02-22T23:39:35.131Z,7.98
2023-02-22T23:42:38.869Z,7.95
2023-02-22T23:45:41.442Z,8.01
2023-02-22T23:48:54.765Z,8.15
2023-02-22T23:51:57.613Z,8.23
2023-02-22T23:55:07.881Z,8.17
2023-02-22T23:58:10.959Z,8.21
